Terminal Aerodrome Forecast
Issued by NWS

Home | Current Version | Previous Version | Text Only | Print | Product List | Glossary On
Versions: 1 2 3 4 5 6 7 8 9 10 11 12 13 14 15 16 17 18 19 20 21 22 23 24 25 26 27 28 29 30 31 32 33 34 35 36 37 38
474
FTUS43 KMKX 241736
TAFENW
TAF
KENW 241736Z 2418/2518 20010G15KT P6SM SCT060
     FM250000 20008KT P6SM VCTS BKN080CB
     FM250300 21005KT P6SM BKN200
     FM250900 22004KT 3SM BR BKN150
     FM251200 18004KT 1SM BR BKN025
     FM251600 14006KT P6SM SCT025 BKN120=

USA.gov is the U.S. government's official web portal to all federal, state and local government web resources and services.